Startpagina
METAR-TAF:

METAR-TAF

Vliegvelden :

Aéroport Marseille Provence

Marseille, Frankrijk

breedte: 43-27N, lengte: 005-14E, hoogte: 6 m

Actueel weer

Dit bericht is 44 minuten geleden gemaakt, om 20:00 UTC
Wind 5 kt uit het zuidoosten
Temperatuur 11°C
Vochtigheid 71%
Druk 1027 hPa
Zicht 10 km of meer
geen wolken onder 1500 m en geen cumulonimbus

METAR: LFML 232000Z AUTO 13005KT CAVOK 11/06 Q1027 NOSIG

Tijdstip: 21:44 (20:44 UTC)

Verwachting

Dit bericht is 44 minuten geleden gemaakt, om 20:00 UTC
Verwachting geldig van 23 om 21 UTC tot 25 om 03 UTC
Wind 10 kt uit het noordwesten
Zicht 10 km of meer
geen wolken onder 1500 m en geen cumulonimbus
Tijdelijke
van 23 om 21 UTC tot 23 om 23 UTC
Wind 5 kt uit variabele richting
Wijzigt naar
van 24 om 17 UTC tot 24 om 19 UTC
Wind 5 kt uit variabele richting

TAF: LFML 232000Z 2321/2503 32010KT CAVOK TX20/2414Z TN07/2403Z TEMPO 2321/2323 VRB05KT BECMG 2417/2419 VRB05KT

Waarnemingen en weersverwachtingen van meer dan 4000 vliegvelden (METAR en TAF).

De beschikbare stations zijn de gele en rode punten op de kaart.

Ga met uw muis naar het station om de naam te zien.

Klik dan om waarnemingen en weersverwachtingen te zien.

kaart wijzigen: klik op de groene knoppen met een zwart kruis om in te zoomen, op de groene knop met een streepje om uit te zoomen of op de groene pijlen voor aangrenzende kaarten.


METAR-TAF: